Hlavní strana
METAR-TAF:

METAR-TAF

Letiště :

Fort Rucker, Alabama, Spojené státy americké

zeměpisná šířka: 31-21-32N, zeměpisná délka: 085-44-54W, výška: 78 m

Aktuální stav počasí

Zpráva byla vytvořena před 27 minutami, v 23:58 UTC
Bezvětří
Teplota 9°C
Vlhkost vzduchu 100%
Tlak 1018 hPa
Viditelnost: 14.5 km
Polojasno ve výšce 3800 ft
Zataženo ve výšce 4700 ft

METAR: KLOR 262358Z AUTO 00000KT 9SM SCT038 OVC047 09/09 A3005 RMK AO2 SLP160 60001 T00880088 10120 20087 55008 $

Čas: 18:25 (00:25 UTC)


TAF: chybějící

Stav a předpovědi počasí z více než 4 000 letišť (zprávy METAR a TAF).

Červené a žluté tečky na mapě představují dostupné meteorologické stanice.

Když kurzor umístíte na tečku, zobrazí se název stanice.

Pak kliknutím zobrazíte stav a předpověď počasí.

Chcete-li změnit mapu, kliknutím na zelené tlačítko se znaménkem +mapu přiblížíte, kliknutím na zelené tlačítko se znaménkem – mapu oddálíte a kliknutím na zelené šipky přejdete na sousední mapy.


METAR-TAF: